createdAt,value
2022-11-09T00:02:25.094Z,14.02
2022-11-09T00:05:27.581Z,14.05
2022-11-09T00:08:30.188Z,13.99
2022-11-09T00:11:33.999Z,13.94
2022-11-09T00:14:36.720Z,13.89
2022-11-09T00:17:40.274Z,13.86
2022-11-09T00:20:47.206Z,13.85
2022-11-09T00:23:51.250Z,13.83
2022-11-09T00:26:55.113Z,13.79
2022-11-09T00:29:57.684Z,13.76
2022-11-09T00:33:00.256Z,13.73
2022-11-09T00:36:07.544Z,13.74
2022-11-09T00:39:10.235Z,13.68
2022-11-09T00:42:14.012Z,13.67
2022-11-09T00:45:16.658Z,13.72
2022-11-09T00:48:19.188Z,13.69
2022-11-09T00:51:21.669Z,13.66
2022-11-09T00:54:24.168Z,13.61
2022-11-09T00:57:28.046Z,13.62
2022-11-09T01:00:30.536Z,13.63
2022-11-09T01:03:33.025Z,13.63
2022-11-09T01:06:35.680Z,13.61
2022-11-09T01:09:38.412Z,13.57
2022-11-09T01:12:42.201Z,13.66
2022-11-09T01:15:46.675Z,13.68
2022-11-09T01:18:49.408Z,13.62
2022-11-09T01:21:51.873Z,13.54
2022-11-09T01:24:54.362Z,13.53
2022-11-09T01:28:00.008Z,13.55
2022-11-09T01:31:04.877Z,13.54
2022-11-09T01:34:07.408Z,13.53
2022-11-09T01:37:09.962Z,13.55
2022-11-09T01:40:13.078Z,13.54
2022-11-09T01:43:19.410Z,13.65
2022-11-09T01:46:27.562Z,13.56
2022-11-09T01:49:41.005Z,13.61
2022-11-09T01:52:49.214Z,13.57
2022-11-09T01:55:55.417Z,13.55
2022-11-09T01:59:01.931Z,13.57
2022-11-09T02:02:05.683Z,13.58
2022-11-09T02:05:11.692Z,13.52
2022-11-09T02:08:18.967Z,13.55
2022-11-09T02:11:24.696Z,13.59
2022-11-09T02:14:30.965Z,13.71
2022-11-09T02:17:33.823Z,13.66
2022-11-09T02:20:48.247Z,13.69
2022-11-09T02:23:51.253Z,13.58
2022-11-09T02:26:54.959Z,13.46
2022-11-09T02:29:59.399Z,13.39
2022-11-09T02:33:01.935Z,13.32
2022-11-09T02:36:06.309Z,13.30
2022-11-09T02:39:08.811Z,13.16
2022-11-09T02:42:20.996Z,13.11
2022-11-09T02:45:24.050Z,13.02
2022-11-09T02:48:26.675Z,12.96
2022-11-09T02:51:30.981Z,12.90
2022-11-09T02:54:33.481Z,12.90
2022-11-09T02:57:36.109Z,12.92
2022-11-09T03:00:38.593Z,12.86
2022-11-09T03:03:41.326Z,12.91
2022-11-09T03:06:45.153Z,12.87
2022-11-09T03:09:47.656Z,12.84
2022-11-09T03:12:50.113Z,12.84
2022-11-09T03:15:52.563Z,12.81
2022-11-09T03:18:56.712Z,12.77
2022-11-09T03:22:00.489Z,12.83
2022-11-09T03:25:02.938Z,12.86
2022-11-09T03:28:08.339Z,12.86
2022-11-09T03:31:10.862Z,12.77
2022-11-09T03:34:13.451Z,12.77
2022-11-09T03:37:17.249Z,12.76
2022-11-09T03:40:20.308Z,12.63
2022-11-09T03:43:23.001Z,12.67
2022-11-09T03:46:25.618Z,12.80
2022-11-09T03:49:28.162Z,12.71
2022-11-09T03:52:31.925Z,12.70
2022-11-09T03:55:34.503Z,12.71
2022-11-09T03:58:37.171Z,12.71
2022-11-09T04:01:39.659Z,12.70
2022-11-09T04:04:42.243Z,12.64
2022-11-09T04:07:50.252Z,12.73
2022-11-09T04:10:52.727Z,12.64
2022-11-09T04:13:55.195Z,12.68
2022-11-09T04:16:57.753Z,12.64
2022-11-09T04:20:00.194Z,12.66
2022-11-09T04:23:06.370Z,12.69
2022-11-09T04:26:08.886Z,12.66
2022-11-09T04:29:11.454Z,12.71
2022-11-09T04:32:13.935Z,12.76
2022-11-09T04:35:16.549Z,12.88
2022-11-09T04:38:20.451Z,12.99
2022-11-09T04:41:22.912Z,13.04
2022-11-09T04:44:25.414Z,13.06
2022-11-09T04:47:28.434Z,13.19
2022-11-09T04:50:31.326Z,13.21
2022-11-09T04:53:36.201Z,13.27
2022-11-09T04:56:38.706Z,13.30
2022-11-09T04:59:41.171Z,13.26
2022-11-09T05:02:43.635Z,13.26
2022-11-09T05:05:48.518Z,13.28
2022-11-09T05:08:53.115Z,13.28
2022-11-09T05:11:55.583Z,13.33
2022-11-09T05:14:58.053Z,13.42
2022-11-09T05:18:01.631Z,13.43
2022-11-09T05:21:04.659Z,13.41
2022-11-09T05:24:08.499Z,13.53
2022-11-09T05:27:11.265Z,13.51
2022-11-09T05:30:14.187Z,13.58
2022-11-09T05:33:17.326Z,13.58
2022-11-09T05:36:20.762Z,13.56
2022-11-09T05:39:24.559Z,13.64
2022-11-09T05:42:27.330Z,13.62
2022-11-09T05:45:42.509Z,13.62
2022-11-09T05:48:46.882Z,13.63
2022-11-09T05:51:49.369Z,13.64
2022-11-09T05:54:53.291Z,13.58
2022-11-09T05:57:56.005Z,13.55
2022-11-09T06:00:59.815Z,13.59
2022-11-09T06:04:02.465Z,13.62
2022-11-09T06:07:04.984Z,13.55
2022-11-09T06:10:10.451Z,13.66
2022-11-09T06:13:12.923Z,13.63
2022-11-09T06:16:15.612Z,13.59
2022-11-09T06:19:18.143Z,13.58
2022-11-09T06:22:20.581Z,13.54
2022-11-09T06:25:25.178Z,13.47
2022-11-09T06:28:28.541Z,13.51
2022-11-09T06:31:31.205Z,13.58
2022-11-09T06:34:33.682Z,13.56
2022-11-09T06:37:36.121Z,13.55
2022-11-09T06:40:39.947Z,13.57
2022-11-09T06:43:42.453Z,13.57
2022-11-09T06:46:44.905Z,13.58
2022-11-09T06:49:47.432Z,13.53
2022-11-09T06:52:49.923Z,13.45
2022-11-09T06:55:53.712Z,13.44
2022-11-09T06:58:56.682Z,13.38
2022-11-09T07:02:01.667Z,13.20
2022-11-09T07:05:04.759Z,13.26
2022-11-09T07:08:07.327Z,13.21
2022-11-09T07:11:12.995Z,13.26
2022-11-09T07:14:15.468Z,13.21
2022-11-09T07:17:18.173Z,13.26
2022-11-09T07:20:20.625Z,13.26
2022-11-09T07:23:23.372Z,13.22
2022-11-09T07:26:27.453Z,13.24
2022-11-09T07:29:29.951Z,13.34
2022-11-09T07:33:07.348Z,13.44
2022-11-09T07:35:56.520Z,13.49
2022-11-09T07:38:59.260Z,13.54
2022-11-09T07:42:03.059Z,13.58
2022-11-09T07:45:06.383Z,13.56
2022-11-09T07:48:10.949Z,13.57
2022-11-09T07:51:13.471Z,13.47
2022-11-09T07:54:15.972Z,13.49
2022-11-09T07:57:19.990Z,13.59
2022-11-09T08:00:23.777Z,13.72
2022-11-09T08:03:27.098Z,13.78
2022-11-09T08:06:29.790Z,13.85
2022-11-09T08:09:32.273Z,13.95
2022-11-09T08:12:37.429Z,14.01
2022-11-09T08:15:41.082Z,14.10
2022-11-09T08:18:43.532Z,14.08
2022-11-09T08:21:46.032Z,14.20
2022-11-09T08:24:48.503Z,14.31
2022-11-09T08:27:52.371Z,14.29
2022-11-09T08:31:00.088Z,14.23
2022-11-09T08:34:02.773Z,14.18
2022-11-09T08:37:06.230Z,14.13
2022-11-09T08:40:09.935Z,14.12
2022-11-09T08:43:14.123Z,14.14
2022-11-09T08:46:16.615Z,13.94
2022-11-09T08:49:19.070Z,13.96
2022-11-09T08:52:21.656Z,13.97
2022-11-09T08:55:24.559Z,13.95
2022-11-09T08:58:28.445Z,14.02
2022-11-09T09:01:30.970Z,13.91
2022-11-09T09:04:33.572Z,13.86
2022-11-09T09:07:36.155Z,13.84
2022-11-09T09:10:38.730Z,13.79
2022-11-09T09:13:43.703Z,13.83
2022-11-09T09:16:46.469Z,13.86
2022-11-09T09:19:50.198Z,13.89
2022-11-09T09:22:52.864Z,13.89
2022-11-09T09:25:58.720Z,13.84
2022-11-09T09:29:02.687Z,13.92
2022-11-09T09:32:05.582Z,14.02
2022-11-09T09:35:08.761Z,14.10
2022-11-09T09:38:11.390Z,14.08
2022-11-09T09:41:22.660Z,14.10
2022-11-09T09:44:31.470Z,14.27
2022-11-09T09:47:47.137Z,14.43
2022-11-09T09:50:53.181Z,14.57
2022-11-09T09:54:00.138Z,14.78
2022-11-09T09:57:03.857Z,14.96
2022-11-09T10:00:10.500Z,15.17
2022-11-09T10:03:18.594Z,15.13
2022-11-09T10:06:38.686Z,15.26
2022-11-09T10:10:03.469Z,15.35
2022-11-09T10:13:27.858Z,15.09
2022-11-09T10:16:39.547Z,15.30
2022-11-09T10:19:57.026Z,15.40
2022-11-09T10:23:13.665Z,15.74
2022-11-09T10:26:20.042Z,15.96
2022-11-09T10:29:24.801Z,15.94
2022-11-09T10:32:32.442Z,16.10
2022-11-09T10:35:38.621Z,15.92
2022-11-09T10:38:45.873Z,16.09
2022-11-09T10:41:48.351Z,16.18
2022-11-09T10:44:50.931Z,15.98
2022-11-09T10:47:54.863Z,16.22
2022-11-09T10:50:58.354Z,16.14
2022-11-09T10:54:19.707Z,16.15
2022-11-09T10:57:24.099Z,16.31
2022-11-09T11:00:26.835Z,16.79
2022-11-09T11:03:33.167Z,16.52
2022-11-09T11:06:35.657Z,16.67
2022-11-09T11:09:38.203Z,17.05
2022-11-09T11:12:40.699Z,16.98
2022-11-09T11:15:43.964Z,17.05
2022-11-09T11:18:48.920Z,17.15
2022-11-09T11:22:19.080Z,17.28
2022-11-09T11:25:24.954Z,17.45
2022-11-09T11:28:34.087Z,17.38
2022-11-09T11:31:36.549Z,17.31
2022-11-09T11:34:59.256Z,17.25
2022-11-09T11:38:21.719Z,16.94
2022-11-09T11:41:45.057Z,16.93
2022-11-09T11:45:25.612Z,17.29
2022-11-09T11:48:46.306Z,17.43
2022-11-09T11:51:59.880Z,17.03
2022-11-09T11:55:19.075Z,16.98
2022-11-09T11:58:36.303Z,17.09
2022-11-09T12:01:50.450Z,16.94
2022-11-09T12:05:26.050Z,16.86
2022-11-09T12:08:40.936Z,16.94
2022-11-09T12:11:54.729Z,16.71
2022-11-09T12:15:13.001Z,16.90
2022-11-09T12:18:28.715Z,16.85
2022-11-09T12:21:40.371Z,16.68
2022-11-09T12:24:49.790Z,16.78
2022-11-09T12:28:03.201Z,16.81
2022-11-09T12:31:17.269Z,16.80
2022-11-09T12:34:24.409Z,17.01
2022-11-09T12:37:31.280Z,17.05
2022-11-09T12:40:39.559Z,17.19
2022-11-09T12:43:48.118Z,17.20
2022-11-09T12:46:55.243Z,17.11
2022-11-09T12:49:58.054Z,16.97
2022-11-09T12:53:04.104Z,17.18
2022-11-09T12:56:12.399Z,16.94
2022-11-09T12:59:23.077Z,16.87
2022-11-09T13:02:30.688Z,16.86
2022-11-09T13:05:35.894Z,16.76
2022-11-09T13:08:40.117Z,16.72
2022-11-09T13:11:47.176Z,16.64
2022-11-09T13:14:49.683Z,16.70
2022-11-09T13:17:57.092Z,16.59
2022-11-09T13:21:36.144Z,16.43
2022-11-09T13:24:54.716Z,16.43
2022-11-09T13:27:57.705Z,16.20
2022-11-09T13:31:01.308Z,16.13
2022-11-09T13:34:33.599Z,16.18
2022-11-09T13:37:49.199Z,16.20
2022-11-09T13:40:56.838Z,16.18
2022-11-09T13:44:15.454Z,16.34
2022-11-09T13:47:23.838Z,16.25
2022-11-09T13:50:29.156Z,16.39
2022-11-09T13:53:52.866Z,16.38
2022-11-09T13:56:55.812Z,16.23
2022-11-09T14:00:00.725Z,16.29
2022-11-09T14:03:06.674Z,16.23
2022-11-09T14:06:13.251Z,16.27
2022-11-09T14:09:20.607Z,16.19
2022-11-09T14:12:38.172Z,16.29
2022-11-09T14:15:49.226Z,16.22
2022-11-09T14:19:02.971Z,16.21
2022-11-09T14:22:15.999Z,16.23
2022-11-09T14:25:23.423Z,16.14
2022-11-09T14:28:29.231Z,16.18
2022-11-09T14:31:32.069Z,16.22
2022-11-09T14:34:34.530Z,16.24
2022-11-09T14:37:37.499Z,16.29
2022-11-09T14:40:45.582Z,16.40
2022-11-09T14:43:50.172Z,16.39
2022-11-09T14:46:54.515Z,16.32
2022-11-09T14:49:57.721Z,16.21
2022-11-09T14:53:02.261Z,16.13
2022-11-09T14:56:07.775Z,16.12
2022-11-09T14:59:15.474Z,16.07
2022-11-09T15:02:19.556Z,15.97
2022-11-09T15:05:39.816Z,15.99
2022-11-09T15:08:53.145Z,15.85
2022-11-09T15:11:57.359Z,15.75
2022-11-09T15:15:02.286Z,15.58
2022-11-09T15:18:05.709Z,15.70
2022-11-09T15:21:13.731Z,15.67
2022-11-09T15:24:17.835Z,15.66
2022-11-09T15:27:34.745Z,15.75
2022-11-09T15:30:44.577Z,15.61
2022-11-09T15:33:51.427Z,15.58
2022-11-09T15:36:55.590Z,15.43
2022-11-09T15:39:59.616Z,15.46
2022-11-09T15:43:04.091Z,15.53
2022-11-09T15:46:07.618Z,15.58
2022-11-09T15:49:17.525Z,15.61
2022-11-09T15:52:20.479Z,15.49
2022-11-09T15:55:24.407Z,15.47
2022-11-09T15:58:28.915Z,15.50
2022-11-09T16:01:33.130Z,15.44
2022-11-09T16:04:36.088Z,15.39
2022-11-09T16:07:45.427Z,15.29
2022-11-09T16:10:48.982Z,15.11
2022-11-09T16:13:53.662Z,15.05
2022-11-09T16:16:57.202Z,14.98
2022-11-09T16:20:02.065Z,14.80
2022-11-09T16:23:10.547Z,14.73
2022-11-09T16:26:15.218Z,14.80
2022-11-09T16:29:19.101Z,14.59
2022-11-09T16:32:21.781Z,14.73
2022-11-09T16:35:28.499Z,14.71
2022-11-09T16:38:35.490Z,14.74
2022-11-09T16:41:40.058Z,14.27
2022-11-09T16:44:46.552Z,14.09
2022-11-09T16:47:56.299Z,13.97
2022-11-09T16:50:58.850Z,13.91
2022-11-09T16:54:01.358Z,13.85
2022-11-09T16:57:04.594Z,13.85
2022-11-09T17:00:09.939Z,13.81
2022-11-09T17:03:13.101Z,13.74
2022-11-09T17:06:15.833Z,13.72
2022-11-09T17:09:20.654Z,13.72
2022-11-09T17:12:23.224Z,13.39
2022-11-09T17:15:27.582Z,13.61
2022-11-09T17:18:30.071Z,13.48
2022-11-09T17:21:33.019Z,13.46
2022-11-09T17:24:35.589Z,13.35
2022-11-09T17:27:38.593Z,13.44
2022-11-09T17:30:42.704Z,13.42
2022-11-09T17:33:45.625Z,13.34
2022-11-09T17:37:05.111Z,13.31
2022-11-09T17:40:09.178Z,13.21
2022-11-09T17:43:11.734Z,13.22
2022-11-09T17:46:17.631Z,13.31
2022-11-09T17:49:20.386Z,13.21
2022-11-09T17:52:22.960Z,13.18
2022-11-09T17:55:25.592Z,13.15
2022-11-09T17:58:28.324Z,13.12
2022-11-09T18:01:36.350Z,13.13
2022-11-09T18:04:42.094Z,13.16
2022-11-09T18:07:44.663Z,13.15
2022-11-09T18:10:50.888Z,13.20
2022-11-09T18:13:53.427Z,13.19
2022-11-09T18:16:59.558Z,13.09
2022-11-09T18:20:02.159Z,12.97
2022-11-09T18:23:04.783Z,12.94
2022-11-09T18:26:08.145Z,12.89
2022-11-09T18:29:10.716Z,12.93
2022-11-09T18:32:14.618Z,13.04
2022-11-09T18:35:17.253Z,13.01
2022-11-09T18:38:20.488Z,12.99
2022-11-09T18:41:24.929Z,12.93
2022-11-09T18:44:27.484Z,12.89
2022-11-09T18:47:31.498Z,13.04
2022-11-09T18:50:34.099Z,13.02
2022-11-09T18:53:39.038Z,13.15
2022-11-09T18:56:41.609Z,13.06
2022-11-09T18:59:44.157Z,13.05
2022-11-09T19:02:48.060Z,13.05
2022-11-09T19:05:50.707Z,13.02
2022-11-09T19:09:11.015Z,13.00
2022-11-09T19:12:14.750Z,13.00
2022-11-09T19:15:17.391Z,12.99
2022-11-09T19:18:21.510Z,12.95
2022-11-09T19:21:36.295Z,12.74
2022-11-09T19:24:38.815Z,12.79
2022-11-09T19:27:41.394Z,12.75
2022-11-09T19:30:43.884Z,12.77
2022-11-09T19:33:47.864Z,12.83
2022-11-09T19:36:50.528Z,12.60
2022-11-09T19:39:52.988Z,12.72
2022-11-09T19:42:55.467Z,12.71
2022-11-09T19:45:58.002Z,12.68
2022-11-09T19:49:03.025Z,12.49
2022-11-09T19:52:05.911Z,12.43
2022-11-09T19:55:09.324Z,12.37
2022-11-09T19:58:12.075Z,12.48
2022-11-09T20:01:14.684Z,12.31
2022-11-09T20:04:18.670Z,12.37
2022-11-09T20:07:21.875Z,12.34
2022-11-09T20:10:24.955Z,12.33
2022-11-09T20:13:27.479Z,12.41
2022-11-09T20:16:30.372Z,12.28
2022-11-09T20:19:34.166Z,12.24
2022-11-09T20:22:36.860Z,12.09
2022-11-09T20:25:39.466Z,11.99
2022-11-09T20:28:42.056Z,12.07
2022-11-09T20:31:44.596Z,12.05
2022-11-09T20:34:49.375Z,11.97
2022-11-09T20:37:51.919Z,11.89
2022-11-09T20:40:55.544Z,11.99
2022-11-09T20:43:58.036Z,12.10
2022-11-09T20:47:00.590Z,11.97
2022-11-09T20:50:04.915Z,11.91
2022-11-09T20:53:07.531Z,12.12
2022-11-09T20:56:10.120Z,12.04
2022-11-09T20:59:12.844Z,11.99
2022-11-09T21:02:16.268Z,11.94
2022-11-09T21:05:20.349Z,12.06
2022-11-09T21:08:23.213Z,12.09
2022-11-09T21:11:28.666Z,12.11
2022-11-09T21:14:31.318Z,12.16
2022-11-09T21:17:34.075Z,12.12
2022-11-09T21:20:38.641Z,12.11
2022-11-09T21:23:59.009Z,12.08
2022-11-09T21:27:21.576Z,12.05
2022-11-09T21:30:24.116Z,12.05
2022-11-09T21:33:26.586Z,11.80
2022-11-09T21:36:30.403Z,11.65
2022-11-09T21:39:32.966Z,11.77
2022-11-09T21:42:35.562Z,11.86
2022-11-09T21:45:38.132Z,11.77
2022-11-09T21:48:40.749Z,11.76
2022-11-09T21:51:44.553Z,11.70
2022-11-09T21:54:47.017Z,11.66
2022-11-09T21:57:49.804Z,11.62
2022-11-09T22:00:52.401Z,11.64
2022-11-09T22:03:55.188Z,11.66
2022-11-09T22:06:59.151Z,11.67
2022-11-09T22:10:10.698Z,11.66
2022-11-09T22:13:32.616Z,11.68
2022-11-09T22:16:35.368Z,11.77
2022-11-09T22:19:56.711Z,11.82
2022-11-09T22:23:00.628Z,11.95
2022-11-09T22:26:03.197Z,12.01
2022-11-09T22:29:06.287Z,12.00
2022-11-09T22:32:08.947Z,12.02
2022-11-09T22:35:11.407Z,11.95
2022-11-09T22:38:15.243Z,11.87
2022-11-09T22:41:18.023Z,11.83
2022-11-09T22:44:20.533Z,11.87
2022-11-09T22:47:23.146Z,11.77
